sensor_id;sensor_type;location;lat;lon;timestamp;temperature;humidity
70246;SHT30;57637;49.272;8.590;2022-08-19T00:01:40;20.59;75.49
70246;SHT30;57637;49.272;8.590;2022-08-19T00:04:08;20.58;75.80
70246;SHT30;57637;49.272;8.590;2022-08-19T00:06:36;20.54;76.07
70246;SHT30;57637;49.272;8.590;2022-08-19T00:09:04;20.55;76.24
70246;SHT30;57637;49.272;8.590;2022-08-19T00:11:31;20.51;76.18
70246;SHT30;57637;49.272;8.590;2022-08-19T00:13:57;20.48;76.25
70246;SHT30;57637;49.272;8.590;2022-08-19T00:16:23;20.54;76.05
70246;SHT30;57637;49.272;8.590;2022-08-19T00:18:49;20.54;76.02
70246;SHT30;57637;49.272;8.590;2022-08-19T00:21:15;20.57;75.81
70246;SHT30;57637;49.272;8.590;2022-08-19T00:23:41;20.54;75.75
70246;SHT30;57637;49.272;8.590;2022-08-19T00:26:08;20.58;75.51
70246;SHT30;57637;49.272;8.590;2022-08-19T00:28:34;20.57;75.56
70246;SHT30;57637;49.272;8.590;2022-08-19T00:31:00;20.58;75.52
70246;SHT30;57637;49.272;8.590;2022-08-19T00:33:28;20.61;75.43
70246;SHT30;57637;49.272;8.590;2022-08-19T00:35:56;20.61;75.52
70246;SHT30;57637;49.272;8.590;2022-08-19T00:38:22;20.58;75.52
70246;SHT30;57637;49.272;8.590;2022-08-19T00:40:47;20.55;75.86
70246;SHT30;57637;49.272;8.590;2022-08-19T00:43:14;20.51;75.99
70246;SHT30;57637;49.272;8.590;2022-08-19T00:45:44;20.52;76.13
70246;SHT30;57637;49.272;8.590;2022-08-19T00:48:10;20.49;76.10
70246;SHT30;57637;49.272;8.590;2022-08-19T00:50:35;20.51;75.87
70246;SHT30;57637;49.272;8.590;2022-08-19T00:53:02;20.55;75.83
70246;SHT30;57637;49.272;8.590;2022-08-19T00:55:29;20.54;75.77
70246;SHT30;57637;49.272;8.590;2022-08-19T00:57:58;20.57;75.62
70246;SHT30;57637;49.272;8.590;2022-08-19T01:00:28;20.57;75.57
70246;SHT30;57637;49.272;8.590;2022-08-19T01:02:54;20.61;75.37
70246;SHT30;57637;49.272;8.590;2022-08-19T01:05:21;20.59;75.07
70246;SHT30;57637;49.272;8.590;2022-08-19T01:07:49;20.61;75.04
70246;SHT30;57637;49.272;8.590;2022-08-19T01:10:17;20.55;75.00
70246;SHT30;57637;49.272;8.590;2022-08-19T01:12:45;20.57;74.92
70246;SHT30;57637;49.272;8.590;2022-08-19T01:15:13;20.61;74.79
70246;SHT30;57637;49.272;8.590;2022-08-19T01:17:43;20.59;74.83
70246;SHT30;57637;49.272;8.590;2022-08-19T01:20:11;20.59;74.85
70246;SHT30;57637;49.272;8.590;2022-08-19T01:22:46;20.63;74.86
70246;SHT30;57637;49.272;8.590;2022-08-19T01:25:15;20.61;74.92
70246;SHT30;57637;49.272;8.590;2022-08-19T01:27:44;20.61;74.94
70246;SHT30;57637;49.272;8.590;2022-08-19T01:30:19;20.61;74.97
70246;SHT30;57637;49.272;8.590;2022-08-19T01:32:47;20.59;75.17
70246;SHT30;57637;49.272;8.590;2022-08-19T01:35:13;20.55;75.41
70246;SHT30;57637;49.272;8.590;2022-08-19T01:37:46;20.52;75.38
70246;SHT30;57637;49.272;8.590;2022-08-19T01:40:14;20.49;75.46
70246;SHT30;57637;49.272;8.590;2022-08-19T01:42:40;20.48;75.54
70246;SHT30;57637;49.272;8.590;2022-08-19T01:45:06;20.47;75.57
70246;SHT30;57637;49.272;8.590;2022-08-19T01:47:34;20.48;75.49
70246;SHT30;57637;49.272;8.590;2022-08-19T01:50:04;20.51;75.41
70246;SHT30;57637;49.272;8.590;2022-08-19T01:52:31;20.51;75.34
70246;SHT30;57637;49.272;8.590;2022-08-19T01:54:57;20.52;75.37
70246;SHT30;57637;49.272;8.590;2022-08-19T01:57:22;20.49;75.42
70246;SHT30;57637;49.272;8.590;2022-08-19T01:59:48;20.52;75.35
70246;SHT30;57637;49.272;8.590;2022-08-19T02:02:13;20.54;75.37
70246;SHT30;57637;49.272;8.590;2022-08-19T02:04:39;20.54;75.29
70246;SHT30;57637;49.272;8.590;2022-08-19T02:07:05;20.54;75.35
70246;SHT30;57637;49.272;8.590;2022-08-19T02:09:33;20.54;75.33
70246;SHT30;57637;49.272;8.590;2022-08-19T02:11:59;20.47;75.48
70246;SHT30;57637;49.272;8.590;2022-08-19T02:14:24;20.44;75.67
70246;SHT30;57637;49.272;8.590;2022-08-19T02:16:50;20.44;75.75
70246;SHT30;57637;49.272;8.590;2022-08-19T02:19:15;20.47;75.73
70246;SHT30;57637;49.272;8.590;2022-08-19T02:21:41;20.44;75.94
70246;SHT30;57637;49.272;8.590;2022-08-19T02:24:08;20.43;76.10
70246;SHT30;57637;49.272;8.590;2022-08-19T02:26:33;20.34;76.60
70246;SHT30;57637;49.272;8.590;2022-08-19T02:28:59;20.35;76.64
70246;SHT30;57637;49.272;8.590;2022-08-19T02:31:25;20.30;76.46
70246;SHT30;57637;49.272;8.590;2022-08-19T02:33:52;20.30;76.39
70246;SHT30;57637;49.272;8.590;2022-08-19T02:36:20;20.33;76.41
70246;SHT30;57637;49.272;8.590;2022-08-19T02:38:45;20.34;76.26
70246;SHT30;57637;49.272;8.590;2022-08-19T02:41:13;20.33;76.21
70246;SHT30;57637;49.272;8.590;2022-08-19T02:43:41;20.35;76.11
70246;SHT30;57637;49.272;8.590;2022-08-19T02:48:53;20.38;75.95
70246;SHT30;57637;49.272;8.590;2022-08-19T02:51:22;20.37;76.03
70246;SHT30;57637;49.272;8.590;2022-08-19T02:53:51;20.31;76.11
70246;SHT30;57637;49.272;8.590;2022-08-19T02:56:18;20.31;76.06
70246;SHT30;57637;49.272;8.590;2022-08-19T02:58:44;20.31;75.96
70246;SHT30;57637;49.272;8.590;2022-08-19T03:01:09;20.33;75.92
70246;SHT30;57637;49.272;8.590;2022-08-19T03:03:36;20.31;75.91
70246;SHT30;57637;49.272;8.590;2022-08-19T03:06:07;20.31;76.06
70246;SHT30;57637;49.272;8.590;2022-08-19T03:08:38;20.30;75.94
70246;SHT30;57637;49.272;8.590;2022-08-19T03:11:06;20.30;75.96
70246;SHT30;57637;49.272;8.590;2022-08-19T03:13:32;20.30;75.99
70246;SHT30;57637;49.272;8.590;2022-08-19T03:15:57;20.27;76.30
70246;SHT30;57637;49.272;8.590;2022-08-19T03:18:23;20.23;76.51
70246;SHT30;57637;49.272;8.590;2022-08-19T03:20:49;20.24;76.68
70246;SHT30;57637;49.272;8.590;2022-08-19T03:23:17;20.17;76.83
70246;SHT30;57637;49.272;8.590;2022-08-19T03:25:44;20.16;76.84
70246;SHT30;57637;49.272;8.590;2022-08-19T03:28:11;20.18;76.72
70246;SHT30;57637;49.272;8.590;2022-08-19T03:30:38;20.13;76.81
70246;SHT30;57637;49.272;8.590;2022-08-19T03:33:06;20.10;76.78
70246;SHT30;57637;49.272;8.590;2022-08-19T03:35:32;20.09;76.90
70246;SHT30;57637;49.272;8.590;2022-08-19T03:37:58;20.07;76.95
70246;SHT30;57637;49.272;8.590;2022-08-19T03:40:24;20.04;77.14
70246;SHT30;57637;49.272;8.590;2022-08-19T03:42:50;19.98;77.26
70246;SHT30;57637;49.272;8.590;2022-08-19T03:45:15;19.97;77.47
70246;SHT30;57637;49.272;8.590;2022-08-19T03:47:41;19.92;77.60
70246;SHT30;57637;49.272;8.590;2022-08-19T03:50:06;19.89;77.71
70246;SHT30;57637;49.272;8.590;2022-08-19T03:52:33;19.83;78.04
70246;SHT30;57637;49.272;8.590;2022-08-19T03:54:59;19.80;78.07
70246;SHT30;57637;49.272;8.590;2022-08-19T03:57:24;19.73;78.14
70246;SHT30;57637;49.272;8.590;2022-08-19T03:59:49;19.74;78.23
70246;SHT30;57637;49.272;8.590;2022-08-19T04:02:15;19.72;78.25
70246;SHT30;57637;49.272;8.590;2022-08-19T04:04:41;19.70;78.33
70246;SHT30;57637;49.272;8.590;2022-08-19T04:07:08;19.70;78.35
70246;SHT30;57637;49.272;8.590;2022-08-19T04:09:34;19.69;78.45
70246;SHT30;57637;49.272;8.590;2022-08-19T04:12:01;19.67;78.67
70246;SHT30;57637;49.272;8.590;2022-08-19T04:14:30;19.66;78.66
70246;SHT30;57637;49.272;8.590;2022-08-19T04:16:57;19.63;78.68
70246;SHT30;57637;49.272;8.590;2022-08-19T04:19:24;19.63;78.82
70246;SHT30;57637;49.272;8.590;2022-08-19T04:21:50;19.62;78.78
70246;SHT30;57637;49.272;8.590;2022-08-19T04:24:18;19.63;78.75
70246;SHT30;57637;49.272;8.590;2022-08-19T04:26:44;19.65;78.68
70246;SHT30;57637;49.272;8.590;2022-08-19T04:29:11;19.63;78.62
70246;SHT30;57637;49.272;8.590;2022-08-19T04:31:42;19.69;78.55
70246;SHT30;57637;49.272;8.590;2022-08-19T04:34:10;19.67;78.55
70246;SHT30;57637;49.272;8.590;2022-08-19T04:36:39;19.69;78.60
70246;SHT30;57637;49.272;8.590;2022-08-19T04:39:10;19.69;78.50
70246;SHT30;57637;49.272;8.590;2022-08-19T04:41:38;19.66;78.73
70246;SHT30;57637;49.272;8.590;2022-08-19T04:44:22;19.66;78.76
70246;SHT30;57637;49.272;8.590;2022-08-19T04:46:49;19.66;78.61
70246;SHT30;57637;49.272;8.590;2022-08-19T04:49:15;19.70;78.51
70246;SHT30;57637;49.272;8.590;2022-08-19T04:51:43;19.74;78.31
70246;SHT30;57637;49.272;8.590;2022-08-19T04:54:10;19.79;78.02
70246;SHT30;57637;49.272;8.590;2022-08-19T04:56:36;19.83;77.93
70246;SHT30;57637;49.272;8.590;2022-08-19T04:59:02;19.87;77.60
70246;SHT30;57637;49.272;8.590;2022-08-19T05:01:31;19.92;77.47
70246;SHT30;57637;49.272;8.590;2022-08-19T05:03:58;20.00;77.21
70246;SHT30;57637;49.272;8.590;2022-08-19T05:06:29;20.00;77.19
70246;SHT30;57637;49.272;8.590;2022-08-19T05:08:58;20.07;76.93
70246;SHT30;57637;49.272;8.590;2022-08-19T05:11:29;20.10;76.81
70246;SHT30;57637;49.272;8.590;2022-08-19T05:13:56;20.17;76.50
70246;SHT30;57637;49.272;8.590;2022-08-19T05:16:23;20.30;76.16
70246;SHT30;57637;49.272;8.590;2022-08-19T05:18:49;20.40;75.87
70246;SHT30;57637;49.272;8.590;2022-08-19T05:21:34;20.48;75.73
70246;SHT30;57637;49.272;8.590;2022-08-19T05:24:19;20.54;75.70
70246;SHT30;57637;49.272;8.590;2022-08-19T05:26:46;20.61;75.42
70246;SHT30;57637;49.272;8.590;2022-08-19T05:29:14;20.69;75.13
70246;SHT30;57637;49.272;8.590;2022-08-19T05:31:41;20.88;74.83
70246;SHT30;57637;49.272;8.590;2022-08-19T05:34:07;20.95;74.36
70246;SHT30;57637;49.272;8.590;2022-08-19T05:36:34;21.05;73.88
70246;SHT30;57637;49.272;8.590;2022-08-19T05:39:04;21.30;73.27
70246;SHT30;57637;49.272;8.590;2022-08-19T05:41:29;21.22;73.32
70246;SHT30;57637;49.272;8.590;2022-08-19T05:44:00;21.10;73.64
70246;SHT30;57637;49.272;8.590;2022-08-19T05:46:30;20.99;73.77
70246;SHT30;57637;49.272;8.590;2022-08-19T05:48:56;21.05;73.63
70246;SHT30;57637;49.272;8.590;2022-08-19T05:51:22;21.02;73.80
70246;SHT30;57637;49.272;8.590;2022-08-19T05:53:49;21.08;73.62
70246;SHT30;57637;49.272;8.590;2022-08-19T05:56:15;21.08;73.41
70246;SHT30;57637;49.272;8.590;2022-08-19T05:58:41;21.10;73.33
70246;SHT30;57637;49.272;8.590;2022-08-19T06:01:15;21.15;73.37
70246;SHT30;57637;49.272;8.590;2022-08-19T06:03:42;21.19;73.08
70246;SHT30;57637;49.272;8.590;2022-08-19T06:06:09;21.20;72.97
70246;SHT30;57637;49.272;8.590;2022-08-19T06:08:36;21.27;73.02
70246;SHT30;57637;49.272;8.590;2022-08-19T06:14:16;21.35;72.34
70246;SHT30;57637;49.272;8.590;2022-08-19T06:16:44;21.37;72.50
70246;SHT30;57637;49.272;8.590;2022-08-19T06:19:12;21.40;72.23
70246;SHT30;57637;49.272;8.590;2022-08-19T06:21:42;21.46;72.09
70246;SHT30;57637;49.272;8.590;2022-08-19T06:24:09;21.42;72.23
70246;SHT30;57637;49.272;8.590;2022-08-19T06:26:39;21.45;71.90
70246;SHT30;57637;49.272;8.590;2022-08-19T06:29:07;21.42;71.83
70246;SHT30;57637;49.272;8.590;2022-08-19T06:31:35;21.46;71.72
70246;SHT30;57637;49.272;8.590;2022-08-19T06:34:02;21.43;71.90
70246;SHT30;57637;49.272;8.590;2022-08-19T06:36:30;21.42;72.09
70246;SHT30;57637;49.272;8.590;2022-08-19T06:39:08;21.43;72.06
70246;SHT30;57637;49.272;8.590;2022-08-19T06:41:37;21.46;71.82
70246;SHT30;57637;49.272;8.590;2022-08-19T06:44:05;21.71;71.84
70246;SHT30;57637;49.272;8.590;2022-08-19T06:46:31;21.74;71.70
70246;SHT30;57637;49.272;8.590;2022-08-19T06:48:57;21.74;71.59
70246;SHT30;57637;49.272;8.590;2022-08-19T06:51:23;21.83;71.01
70246;SHT30;57637;49.272;8.590;2022-08-19T06:53:50;21.91;71.08
70246;SHT30;57637;49.272;8.590;2022-08-19T06:56:19;22.01;70.54
70246;SHT30;57637;49.272;8.590;2022-08-19T06:58:47;22.12;70.70
70246;SHT30;57637;49.272;8.590;2022-08-19T07:01:16;22.18;70.12
70246;SHT30;57637;49.272;8.590;2022-08-19T07:03:41;22.10;70.13
70246;SHT30;57637;49.272;8.590;2022-08-19T07:06:09;22.17;69.93
70246;SHT30;57637;49.272;8.590;2022-08-19T07:08:37;22.31;69.58
70246;SHT30;57637;49.272;8.590;2022-08-19T07:11:08;22.44;69.04
70246;SHT30;57637;49.272;8.590;2022-08-19T07:13:35;22.42;69.14
70246;SHT30;57637;49.272;8.590;2022-08-19T07:16:13;22.66;68.45
70246;SHT30;57637;49.272;8.590;2022-08-19T07:18:41;22.75;68.72
70246;SHT30;57637;49.272;8.590;2022-08-19T07:21:12;22.69;68.59
70246;SHT30;57637;49.272;8.590;2022-08-19T07:23:40;22.73;68.40
70246;SHT30;57637;49.272;8.590;2022-08-19T07:26:10;22.86;68.16
70246;SHT30;57637;49.272;8.590;2022-08-19T07:28:42;23.02;67.77
70246;SHT30;57637;49.272;8.590;2022-08-19T07:31:12;22.75;68.23
70246;SHT30;57637;49.272;8.590;2022-08-19T07:33:39;22.76;68.08
70246;SHT30;57637;49.272;8.590;2022-08-19T07:36:06;22.73;68.25
70246;SHT30;57637;49.272;8.590;2022-08-19T07:38:33;22.88;68.08
70246;SHT30;57637;49.272;8.590;2022-08-19T07:40:59;22.92;67.71
70246;SHT30;57637;49.272;8.590;2022-08-19T07:43:26;22.89;67.83
70246;SHT30;57637;49.272;8.590;2022-08-19T07:45:52;22.96;67.59
70246;SHT30;57637;49.272;8.590;2022-08-19T07:48:25;22.92;68.00
70246;SHT30;57637;49.272;8.590;2022-08-19T07:50:53;22.93;67.67
70246;SHT30;57637;49.272;8.590;2022-08-19T07:53:23;23.06;67.64
70246;SHT30;57637;49.272;8.590;2022-08-19T07:55:49;23.00;68.03
70246;SHT30;57637;49.272;8.590;2022-08-19T07:58:18;23.09;67.65
70246;SHT30;57637;49.272;8.590;2022-08-19T08:00:46;23.16;67.10
70246;SHT30;57637;49.272;8.590;2022-08-19T08:03:14;23.19;67.19
70246;SHT30;57637;49.272;8.590;2022-08-19T08:05:42;23.20;66.81
70246;SHT30;57637;49.272;8.590;2022-08-19T08:08:26;23.24;66.55
70246;SHT30;57637;49.272;8.590;2022-08-19T08:11:11;23.23;66.64
70246;SHT30;57637;49.272;8.590;2022-08-19T08:13:37;23.47;66.20
70246;SHT30;57637;49.272;8.590;2022-08-19T08:16:03;23.43;65.87
70246;SHT30;57637;49.272;8.590;2022-08-19T08:18:29;23.44;65.75
70246;SHT30;57637;49.272;8.590;2022-08-19T08:20:55;23.57;65.85
70246;SHT30;57637;49.272;8.590;2022-08-19T08:23:21;23.95;64.95
70246;SHT30;57637;49.272;8.590;2022-08-19T08:25:50;24.04;64.42
70246;SHT30;57637;49.272;8.590;2022-08-19T08:28:18;24.30;63.96
70246;SHT30;57637;49.272;8.590;2022-08-19T08:30:44;24.60;63.11
70246;SHT30;57637;49.272;8.590;2022-08-19T08:33:12;24.55;62.63
70246;SHT30;57637;49.272;8.590;2022-08-19T08:35:39;24.35;63.25
70246;SHT30;57637;49.272;8.590;2022-08-19T08:38:07;24.56;63.16
70246;SHT30;57637;49.272;8.590;2022-08-19T08:45:43;25.08;61.53
70246;SHT30;57637;49.272;8.590;2022-08-19T08:48:22;25.04;61.17
70246;SHT30;57637;49.272;8.590;2022-08-19T08:50:56;25.72;59.08
70246;SHT30;57637;49.272;8.590;2022-08-19T08:53:23;25.62;60.04
70246;SHT30;57637;49.272;8.590;2022-08-19T08:55:50;25.84;57.92
70246;SHT30;57637;49.272;8.590;2022-08-19T08:58:25;25.96;58.32
70246;SHT30;57637;49.272;8.590;2022-08-19T09:00:55;26.20;56.38
70246;SHT30;57637;49.272;8.590;2022-08-19T09:03:23;25.86;56.36
70246;SHT30;57637;49.272;8.590;2022-08-19T09:10:51;25.84;56.53
70246;SHT30;57637;49.272;8.590;2022-08-19T09:16:02;25.61;57.15
70246;SHT30;57637;49.272;8.590;2022-08-19T09:18:41;25.71;56.76
70246;SHT30;57637;49.272;8.590;2022-08-19T09:21:18;25.96;56.52
70246;SHT30;57637;49.272;8.590;2022-08-19T09:23:45;26.01;56.22
70246;SHT30;57637;49.272;8.590;2022-08-19T09:26:12;25.89;54.92
70246;SHT30;57637;49.272;8.590;2022-08-19T09:28:45;25.68;56.32
70246;SHT30;57637;49.272;8.590;2022-08-19T09:31:30;25.52;56.69
70246;SHT30;57637;49.272;8.590;2022-08-19T09:33:57;25.65;56.72
70246;SHT30;57637;49.272;8.590;2022-08-19T09:36:23;25.79;55.71
70246;SHT30;57637;49.272;8.590;2022-08-19T09:38:51;25.35;56.53
70246;SHT30;57637;49.272;8.590;2022-08-19T09:41:18;25.47;57.19
70246;SHT30;57637;49.272;8.590;2022-08-19T09:43:46;25.86;55.49
70246;SHT30;57637;49.272;8.590;2022-08-19T09:46:14;26.05;55.56
70246;SHT30;57637;49.272;8.590;2022-08-19T09:48:41;26.23;55.93
70246;SHT30;57637;49.272;8.590;2022-08-19T09:51:08;26.32;54.46
70246;SHT30;57637;49.272;8.590;2022-08-19T09:53:36;26.23;54.58
70246;SHT30;57637;49.272;8.590;2022-08-19T09:56:03;26.29;54.13
70246;SHT30;57637;49.272;8.590;2022-08-19T09:58:30;26.08;55.39
70246;SHT30;57637;49.272;8.590;2022-08-19T10:00:56;26.13;54.46
70246;SHT30;57637;49.272;8.590;2022-08-19T10:03:23;26.18;55.35
70246;SHT30;57637;49.272;8.590;2022-08-19T10:05:49;26.50;54.23
70246;SHT30;57637;49.272;8.590;2022-08-19T10:08:22;26.25;53.88
70246;SHT30;57637;49.272;8.590;2022-08-19T10:10:51;26.49;55.19
70246;SHT30;57637;49.272;8.590;2022-08-19T10:13:18;26.56;53.87
70246;SHT30;57637;49.272;8.590;2022-08-19T10:15:48;26.39;54.48
70246;SHT30;57637;49.272;8.590;2022-08-19T10:18:16;26.30;53.47
70246;SHT30;57637;49.272;8.590;2022-08-19T10:20:43;26.03;53.09
70246;SHT30;57637;49.272;8.590;2022-08-19T10:23:10;26.06;53.22
70246;SHT30;57637;49.272;8.590;2022-08-19T10:25:36;26.54;52.33
70246;SHT30;57637;49.272;8.590;2022-08-19T10:28:02;26.56;51.95
70246;SHT30;57637;49.272;8.590;2022-08-19T10:30:28;26.91;51.88
70246;SHT30;57637;49.272;8.590;2022-08-19T10:32:54;27.46;52.02
70246;SHT30;57637;49.272;8.590;2022-08-19T10:35:19;27.25;52.23
70246;SHT30;57637;49.272;8.590;2022-08-19T10:37:45;27.08;52.89
70246;SHT30;57637;49.272;8.590;2022-08-19T10:40:10;27.15;52.77
70246;SHT30;57637;49.272;8.590;2022-08-19T10:42:36;27.21;52.59
70246;SHT30;57637;49.272;8.590;2022-08-19T10:45:02;27.12;53.25
70246;SHT30;57637;49.272;8.590;2022-08-19T10:47:30;27.00;53.59
70246;SHT30;57637;49.272;8.590;2022-08-19T10:49:57;26.94;53.36
70246;SHT30;57637;49.272;8.590;2022-08-19T10:52:42;26.52;53.12
70246;SHT30;57637;49.272;8.590;2022-08-19T10:55:09;26.53;52.89
70246;SHT30;57637;49.272;8.590;2022-08-19T10:57:53;27.05;51.21
70246;SHT30;57637;49.272;8.590;2022-08-19T11:00:21;27.30;51.51
70246;SHT30;57637;49.272;8.590;2022-08-19T11:02:48;27.56;51.03
70246;SHT30;57637;49.272;8.590;2022-08-19T11:05:14;27.05;52.36
70246;SHT30;57637;49.272;8.590;2022-08-19T11:07:40;27.14;52.41
70246;SHT30;57637;49.272;8.590;2022-08-19T11:10:07;27.21;51.90
70246;SHT30;57637;49.272;8.590;2022-08-19T11:12:35;27.20;51.40
70246;SHT30;57637;49.272;8.590;2022-08-19T11:15:03;27.16;51.27
70246;SHT30;57637;49.272;8.590;2022-08-19T11:17:29;27.63;51.31
70246;SHT30;57637;49.272;8.590;2022-08-19T11:19:56;27.49;51.66
70246;SHT30;57637;49.272;8.590;2022-08-19T11:22:21;27.54;51.84
70246;SHT30;57637;49.272;8.590;2022-08-19T11:24:47;27.63;51.80
70246;SHT30;57637;49.272;8.590;2022-08-19T11:27:12;27.45;51.57
70246;SHT30;57637;49.272;8.590;2022-08-19T11:29:39;27.32;51.78
70246;SHT30;57637;49.272;8.590;2022-08-19T11:32:09;27.49;50.47
70246;SHT30;57637;49.272;8.590;2022-08-19T11:34:35;27.72;50.77
70246;SHT30;57637;49.272;8.590;2022-08-19T11:37:01;27.24;51.21
70246;SHT30;57637;49.272;8.590;2022-08-19T11:39:29;27.21;51.28
70246;SHT30;57637;49.272;8.590;2022-08-19T11:41:59;27.18;51.76
70246;SHT30;57637;49.272;8.590;2022-08-19T11:44:26;27.28;52.16
70246;SHT30;57637;49.272;8.590;2022-08-19T11:46:52;27.66;50.01
70246;SHT30;57637;49.272;8.590;2022-08-19T11:49:18;28.02;48.49
70246;SHT30;57637;49.272;8.590;2022-08-19T11:51:45;28.65;48.16
70246;SHT30;57637;49.272;8.590;2022-08-19T11:54:12;28.39;48.14
70246;SHT30;57637;49.272;8.590;2022-08-19T11:56:38;27.65;49.80
70246;SHT30;57637;49.272;8.590;2022-08-19T11:59:04;27.44;49.67
70246;SHT30;57637;49.272;8.590;2022-08-19T12:01:30;27.79;48.85
70246;SHT30;57637;49.272;8.590;2022-08-19T12:03:56;28.28;48.56
70246;SHT30;57637;49.272;8.590;2022-08-19T12:06:23;28.14;48.01
70246;SHT30;57637;49.272;8.590;2022-08-19T12:08:57;28.14;47.38
70246;SHT30;57637;49.272;8.590;2022-08-19T12:11:24;28.27;47.43
70246;SHT30;57637;49.272;8.590;2022-08-19T12:13:51;28.12;47.76
70246;SHT30;57637;49.272;8.590;2022-08-19T12:16:19;28.43;46.76
70246;SHT30;57637;49.272;8.590;2022-08-19T12:18:48;28.09;47.18
70246;SHT30;57637;49.272;8.590;2022-08-19T12:21:16;28.17;46.70
70246;SHT30;57637;49.272;8.590;2022-08-19T12:23:46;28.36;46.01
70246;SHT30;57637;49.272;8.590;2022-08-19T12:26:12;28.37;43.95
70246;SHT30;57637;49.272;8.590;2022-08-19T12:28:37;28.10;45.41
70246;SHT30;57637;49.272;8.590;2022-08-19T12:31:04;28.37;44.87
70246;SHT30;57637;49.272;8.590;2022-08-19T12:33:30;28.32;43.74
70246;SHT30;57637;49.272;8.590;2022-08-19T12:36:00;28.43;44.61
70246;SHT30;57637;49.272;8.590;2022-08-19T12:38:30;28.94;42.37
70246;SHT30;57637;49.272;8.590;2022-08-19T12:40:57;28.68;42.72
70246;SHT30;57637;49.272;8.590;2022-08-19T12:43:23;29.04;43.04
70246;SHT30;57637;49.272;8.590;2022-08-19T12:45:49;29.39;42.21
70246;SHT30;57637;49.272;8.590;2022-08-19T12:48:14;29.11;42.22
70246;SHT30;57637;49.272;8.590;2022-08-19T12:50:40;29.49;41.88
70246;SHT30;57637;49.272;8.590;2022-08-19T12:53:07;29.69;40.95
70246;SHT30;57637;49.272;8.590;2022-08-19T12:55:32;29.23;41.53
70246;SHT30;57637;49.272;8.590;2022-08-19T12:57:58;29.65;41.04
70246;SHT30;57637;49.272;8.590;2022-08-19T13:00:26;29.22;40.89
70246;SHT30;57637;49.272;8.590;2022-08-19T13:02:52;29.28;40.94
70246;SHT30;57637;49.272;8.590;2022-08-19T13:05:20;28.99;41.17
70246;SHT30;57637;49.272;8.590;2022-08-19T13:07:48;29.53;39.25
70246;SHT30;57637;49.272;8.590;2022-08-19T13:10:16;29.33;39.68
70246;SHT30;57637;49.272;8.590;2022-08-19T13:12:45;29.80;39.70
70246;SHT30;57637;49.272;8.590;2022-08-19T13:15:13;29.62;39.12
70246;SHT30;57637;49.272;8.590;2022-08-19T13:17:39;29.97;39.17
70246;SHT30;57637;49.272;8.590;2022-08-19T13:20:07;29.60;37.98
70246;SHT30;57637;49.272;8.590;2022-08-19T13:22:34;29.23;39.69
70246;SHT30;57637;49.272;8.590;2022-08-19T13:25:01;28.94;40.07
70246;SHT30;57637;49.272;8.590;2022-08-19T13:27:28;29.25;39.07
70246;SHT30;57637;49.272;8.590;2022-08-19T13:29:54;29.29;38.88
70246;SHT30;57637;49.272;8.590;2022-08-19T13:32:38;29.39;39.16
70246;SHT30;57637;49.272;8.590;2022-08-19T13:35:22;29.39;38.95
70246;SHT30;57637;49.272;8.590;2022-08-19T13:37:47;28.98;39.42
70246;SHT30;57637;49.272;8.590;2022-08-19T13:40:17;29.01;39.00
70246;SHT30;57637;49.272;8.590;2022-08-19T13:42:47;28.94;39.25
70246;SHT30;57637;49.272;8.590;2022-08-19T13:45:16;28.75;39.49
70246;SHT30;57637;49.272;8.590;2022-08-19T13:47:45;28.84;39.64
70246;SHT30;57637;49.272;8.590;2022-08-19T13:50:16;29.32;39.10
70246;SHT30;57637;49.272;8.590;2022-08-19T13:52:44;29.25;38.69
70246;SHT30;57637;49.272;8.590;2022-08-19T13:55:10;29.36;38.86
70246;SHT30;57637;49.272;8.590;2022-08-19T13:57:36;29.36;38.99
70246;SHT30;57637;49.272;8.590;2022-08-19T14:00:09;29.19;39.27
70246;SHT30;57637;49.272;8.590;2022-08-19T14:02:39;29.67;38.77
70246;SHT30;57637;49.272;8.590;2022-08-19T14:05:05;29.48;38.45
70246;SHT30;57637;49.272;8.590;2022-08-19T14:07:32;29.23;38.24
70246;SHT30;57637;49.272;8.590;2022-08-19T14:09:58;29.20;38.41
70246;SHT30;57637;49.272;8.590;2022-08-19T14:12:23;28.90;39.11
70246;SHT30;57637;49.272;8.590;2022-08-19T14:14:49;29.05;38.65
70246;SHT30;57637;49.272;8.590;2022-08-19T14:17:14;29.29;38.46
70246;SHT30;57637;49.272;8.590;2022-08-19T14:19:40;29.59;38.13
70246;SHT30;57637;49.272;8.590;2022-08-19T14:22:06;29.65;37.98
70246;SHT30;57637;49.272;8.590;2022-08-19T14:24:31;29.67;37.70
70246;SHT30;57637;49.272;8.590;2022-08-19T14:26:57;29.76;37.34
70246;SHT30;57637;49.272;8.590;2022-08-19T14:29:23;29.99;37.59
70246;SHT30;57637;49.272;8.590;2022-08-19T14:31:49;30.20;37.23
70246;SHT30;57637;49.272;8.590;2022-08-19T14:34:14;29.81;37.28
70246;SHT30;57637;49.272;8.590;2022-08-19T14:36:40;29.43;38.61
70246;SHT30;57637;49.272;8.590;2022-08-19T14:39:07;29.23;38.87
70246;SHT30;57637;49.272;8.590;2022-08-19T14:41:34;29.49;38.65
70246;SHT30;57637;49.272;8.590;2022-08-19T14:44:00;29.65;38.40
70246;SHT30;57637;49.272;8.590;2022-08-19T14:46:27;29.53;38.55
70246;SHT30;57637;49.272;8.590;2022-08-19T14:48:53;29.45;39.70
70246;SHT30;57637;49.272;8.590;2022-08-19T14:51:20;29.36;39.39
70246;SHT30;57637;49.272;8.590;2022-08-19T14:53:47;29.16;39.72
70246;SHT30;57637;49.272;8.590;2022-08-19T14:56:18;29.42;38.59
70246;SHT30;57637;49.272;8.590;2022-08-19T14:58:46;29.46;38.80
70246;SHT30;57637;49.272;8.590;2022-08-19T15:01:12;29.45;38.70
70246;SHT30;57637;49.272;8.590;2022-08-19T15:03:38;29.32;38.52
70246;SHT30;57637;49.272;8.590;2022-08-19T15:06:05;29.39;38.54
70246;SHT30;57637;49.272;8.590;2022-08-19T15:08:32;29.18;38.49
70246;SHT30;57637;49.272;8.590;2022-08-19T15:11:00;29.35;38.79
70246;SHT30;57637;49.272;8.590;2022-08-19T15:13:26;29.26;38.92
70246;SHT30;57637;49.272;8.590;2022-08-19T15:15:54;29.32;38.67
70246;SHT30;57637;49.272;8.590;2022-08-19T15:18:20;29.25;38.55
70246;SHT30;57637;49.272;8.590;2022-08-19T15:20:47;29.26;38.68
70246;SHT30;57637;49.272;8.590;2022-08-19T15:23:14;29.45;38.53
70246;SHT30;57637;49.272;8.590;2022-08-19T15:25:40;29.49;38.25
70246;SHT30;57637;49.272;8.590;2022-08-19T15:28:06;29.55;38.27
70246;SHT30;57637;49.272;8.590;2022-08-19T15:30:32;29.39;38.48
70246;SHT30;57637;49.272;8.590;2022-08-19T15:32:58;29.38;38.62
70246;SHT30;57637;49.272;8.590;2022-08-19T15:35:24;29.66;38.68
70246;SHT30;57637;49.272;8.590;2022-08-19T15:37:51;29.86;38.45
70246;SHT30;57637;49.272;8.590;2022-08-19T15:40:17;29.72;38.41
70246;SHT30;57637;49.272;8.590;2022-08-19T15:42:44;29.73;38.37
70246;SHT30;57637;49.272;8.590;2022-08-19T15:45:11;29.89;38.22
70246;SHT30;57637;49.272;8.590;2022-08-19T15:47:39;29.74;38.51
70246;SHT30;57637;49.272;8.590;2022-08-19T15:50:06;29.65;38.72
70246;SHT30;57637;49.272;8.590;2022-08-19T15:52:33;29.36;39.00